Nearby METAR Reports

 

CYUL - Montreal/Dorval, Quebec, Canada
Distance from station: ENE 6km
Updated: 04/26/2019 06:00 EDT
Mostly cloudy
Mostly cloudy
 Wind from NNE
Wind: NNE 17 km/h
Temperature: 5°C
Wind Chill: 2°C
Dew Point: 4°C
Humidity: 93%
Barometer: 1008.5 hPa
Clouds: Mostly cloudy
Visibility: 24 km
Cloud details: Mostly cloudy 3353 m
Mostly cloudy 4572 m
2019/04/26 10:00 CYUL 261000Z 02009KT 15SM BKN110 BKN150 05/04 A2978 RMK AC5AC2 SLP086
CWVQ - Ste Anne De Bell, Quebec, Canada
Distance from station: WSW 10km
Updated: 04/26/2019 06:00 EDT

 Wind from NE
Wind: NE 9 km/h
Temperature: 5°C
Wind Chill: 3°C
Dew Point: 3°C
Humidity: 87%
2019/04/26 10:00 CWVQ 261000Z AUTO 04005KT 05/03 RMK AO1 SLP084 T00450031 56018
 
CWTA - Mc Tavish (aut), Quebec, Canada
Distance from station: ENE 18km
Updated: 04/26/2019 06:00 EDT

 Wind from N
Wind: N 11 km/h
Temperature: 5°C
Wind Chill: 2°C
Dew Point: 3°C
Humidity: 87%
2019/04/26 10:00 CWTA 261000Z AUTO 36006KT 05/03 RMK AO1 SLP089 T00520031 56015
CYMX - Montreal/Mirabel, Quebec, Canada
Distance from station: NW 29km
Updated: 04/26/2019 06:00 EDT
Mostly cloudy
Mostly cloudy
 Wind from NE
Wind: NE 15 km/h, Gust: 28 km/h
Temperature: 4°C
Wind Chill: 1°C
Dew Point: 3°C
Humidity: 93%
Barometer: 1008.8 hPa
Clouds: Mostly cloudy
Visibility: 24 km
Cloud details: Mostly cloudy 3048 m
Mostly cloudy 4572 m
2019/04/26 10:00 CYMX 261000Z 05008G15KT 010V070 15SM BKN100 BKN150 04/03 A2979 RMK AC5AC2 SLP091
 
CYHU - Saint Hubert Arp, Quebec, Canada
Distance from station: ENE 31km
Updated: 04/26/2019 06:00 EDT
Overcast
Overcast
 Wind from NNE
Wind: NNE 19 km/h
Temperature: 4°C
Wind Chill: 0°C
Dew Point: 3°C
Humidity: 93%
Barometer: 1008.5 hPa
Clouds: Overcast
Visibility: 14 km
Cloud details: Overcast 3353 m
2019/04/26 10:00 CYHU 261000Z AUTO 02010KT 9SM OVC110 04/03 A2978 RMK SLP088
CWIT - St Clothilde (a, Quebec, Canada
Distance from station: SSE 33km
Updated: 04/26/2019 06:00 EDT

 Wind from ESE
Wind: ESE 6 km/h
Temperature: 5°C
Dew Point: 4°C
Humidity: 93%
2019/04/26 10:00 CWIT 261000Z AUTO 12003KT 05/04 RMK AO1 SLP079 T00530036 56014
 
CWIZ - L'acadie, Quebec, Canada
Distance from station: ESE 41km
Updated: 04/26/2019 06:00 EDT

 Wind from NNE
Wind: NNE 4 km/h
Temperature: 5°C
Dew Point: 3°C
Humidity: 87%
2019/04/26 10:00 CWIZ 261000Z AUTO 03002KT 05/03 RMK AO1 T00450034
CWHM - Varennes, Quebec, Canada
Distance from station: NE 45km
Updated: 10/25/2016 10:00 EDT
NOT Current

 Wind from W
Wind: W 19 km/h, Gust: 28 km/h
Temperature: 4°C
Wind Chill: 0°C
Dew Point: -2°C
Humidity: 65%
2016/10/25 14:00 CWHM 251400Z AUTO 28010G15KT 04/M02 RMK AO1 PK WND 28018/1302 T00391017
 
CWEW - L'assomption, Quebec, Canada
Distance from station: NE 50km
Updated: 04/26/2019 06:00 EDT

 Wind from NNE
Wind: NNE 7 km/h
Temperature: 4°C
Wind Chill: 2°C
Dew Point: 4°C
Humidity: 100%
2019/04/26 10:00 CWEW 261000Z AUTO 02004KT 04/04 RMK AO1 SLP104 T00440035 56012
CWBZ - St Anicet, Quebec, Canada
Distance from station: SW 52km
Updated: 04/26/2019 06:00 EDT

 Wind from ENE
Wind: ENE 11 km/h
Temperature: 7°C
Wind Chill: 5°C
Dew Point: 4°C
Humidity: 81%
2019/04/26 10:00 CWBZ 261000Z AUTO 07006KT 07/04 RMK AO1 SLP064 T00680040 56021
 
KFSO - Highgate, Vermont, USA
Distance from station: SE 79km
Updated: 04/26/2019 06:55 EDT
Partly cloudy
Partly cloudy
 Wind from S
Wind: S 6 km/h
Temperature: 6°C
Dew Point: 4°C
Humidity: 87%
Barometer: 1008.5 hPa
Clouds: Partly cloudy
Visibility: 16 km
Cloud details: Partly cloudy 3353 m
2019/04/26 10:55 KFSO 261055Z AUTO 19003KT 10SM SCT110 06/04 A2978 RMK AO2 T00560042
CMGB - Granby, Quebec, Canada
Distance from station: E 81km
Updated: 04/26/2019 06:45 EDT

 Wind from ENE
Wind: ENE 2 km/h
Temperature: 9°C
Dew Point: 4°C
Humidity: 71%
2019/04/26 10:45 CMGB 261045Z AUTO 07001KT 09/04 RMK AO1 SLP084 T00890043 57017
 
CWJT - St Jovite (autob, Quebec, Canada
Distance from station: NW 88km
Updated: 04/26/2019 06:00 EDT

 Wind from E
Wind: E 7 km/h
Temperature: 4°C
Wind Chill: 2°C
Dew Point: 2°C
Humidity: 87%
2019/04/26 10:00 CWJT 261000Z AUTO 09004KT 04/02 RMK AO1 SLP084 T00400015 56019
CWFQ - Frelighsburg, Quebec, Canada
Distance from station: ESE 90km
Updated: 04/26/2019 06:00 EDT

 Wind from SE
Wind: SE 13 km/h
Temperature: 9°C
Wind Chill: 7°C
Dew Point: 4°C
Humidity: 71%
2019/04/26 10:00 CWFQ 261000Z AUTO 14007KT 09/04 RMK AO1 SLP081 T00900035 56013
 
KPBG - Plattsburgh Afb, New York, USA
Distance from station: SSE 93km
Updated: 04/26/2019 06:53 EDT
Light rain, Overcast
Light rain, Overcast
 Wind from SSE
Wind: SSE 7 km/h
Temperature: 6°C
Wind Chill: 4°C
Dew Point: 4°C
Humidity: 87%
Barometer: 1008.5 hPa
Summary: Light rain
Clouds: Overcast
Visibility: 13 km
Cloud details: Overcast 2438 m
2019/04/26 10:53 KPBG 261053Z AUTO 15004KT 8SM -RA OVC080 06/04 A2978 RMK AO2 RAB11 SLP085 P0002 T00560039
KMSS - Massena, New York, USA
Distance from station: SW 100km
Updated: 04/26/2019 06:53 EDT
Overcast
Overcast
 Wind from ENE
Wind: ENE 22 km/h
Temperature: 7°C
Wind Chill: 4°C
Dew Point: 4°C
Humidity: 81%
Barometer: 1005.8 hPa
Clouds: Overcast
Visibility: 16 km
Cloud details: Overcast 2134 m
2019/04/26 10:53 KMSS 261053Z AUTO 06012KT 10SM OVC070 07/04 A2970 RMK AO2 SLP060 T00720039
 
CWBS - Lac St Pierre (a, Quebec, Canada
Distance from station: NE 106km
Updated: 04/26/2019 06:00 EDT

 Wind from NE
Wind: NE 26 km/h
Temperature: 4°C
Wind Chill: -1°C
Dew Point: 2°C
Humidity: 87%
2019/04/26 10:00 CWBS 261000Z AUTO 04014KT 04/02 RMK AO1 T00370024
KBTV - Burlington, Vermont, USA
Distance from station: SSE 121km
Updated: 04/26/2019 06:54 EDT
Light rain, Overcast
Light rain, Overcast
 Wind from S
Wind: S 9 km/h
Temperature: 8°C
Wind Chill: 6°C
Dew Point: 6°C
Humidity: 87%
Barometer: 1008.8 hPa
Summary: Light rain
Clouds: Overcast
Visibility: 16 km
Cloud details: Mostly cloudy 2134 m
Overcast 2591 m
2019/04/26 10:54 KBTV 261054Z 19005KT 10SM -RA BKN070 OVC085 08/06 A2979 RMK AO2 RAB0955 SLP088 P0001 T00830056
 
KSLK - Saranac Lake, New York, USA
Distance from station: SSW 121km
Updated: 04/26/2019 06:51 EDT
Light rain, Mist, Overcast
Light rain, Mist, Overcast
 Wind from NE
Wind: NE 9 km/h
Temperature: 5°C
Wind Chill: 3°C
Dew Point: 4°C
Humidity: 93%
Barometer: 1005.8 hPa
Summary: Light rain, Mist
Clouds: Overcast
Visibility: 10 km
Cloud details: Mostly cloudy 1097 m
Mostly cloudy 1494 m
Overcast 2134 m
2019/04/26 10:51 KSLK 261051Z AUTO 05005KT 6SM -RA BR BKN036 BKN049 OVC070 05/04 A2970 RMK AO2 SLP061 P0003 T00500039
CWNQ - Nicolet (autob), Quebec, Canada
Distance from station: NE 123km
Updated: 04/26/2019 06:00 EDT

 Wind from NE
Wind: NE 13 km/h
Temperature: 3°C
Wind Chill: -1°C
Dew Point: 2°C
Humidity: 93%
2019/04/26 10:00 CWNQ 261000Z AUTO 05007KT 03/02 RMK AO1 SLP103 T00320019 56014
 
KMWN - Mount Washington, New Hampshire, USA
Distance from station: SE 237km
Updated: 04/26/2019 06:52 EDT

 Wind from S
Wind: S 43 km/h
Visibility: 112 km
2019/04/26 10:52 KMWN 261052Z 18023KT 70SM SCT/// FEW025 BKN030 OVC040 M00/M01 RMK SH DSNT S-W TPS LWR SCT048 VIS LWR S-W
CYVR - Vancouver Intl A, British Columbia, Canada
Distance from station: NW 3676km
Updated: 04/26/2019 06:00 EDT
Few Clouds
Few Clouds
 Wind from WNW
Wind: WNW 28 km/h
Temperature: 9°C
Wind Chill: 6°C
Dew Point: 5°C
Humidity: 76%
Barometer: 1017.6 hPa
Clouds: Few Clouds
Visibility: 32 km
Cloud details: Few Clouds 6096 m
2019/04/26 10:00 CYVR 261000Z 29015KT 20SM FEW200 09/05 A3005 RMK CS2 SLP178